createdAt,value
2019-05-01T00:01:47.923Z,41.80
2019-05-01T00:04:28.471Z,39.40
2019-05-01T00:07:08.523Z,44.00
2019-05-01T00:09:38.092Z,43.95
2019-05-01T00:12:07.947Z,41.58
2019-05-01T00:14:37.372Z,42.62
2019-05-01T00:17:07.051Z,42.85
2019-05-01T00:19:36.411Z,39.83
2019-05-01T00:22:06.004Z,46.50
2019-05-01T00:24:35.360Z,43.75
2019-05-01T00:27:04.813Z,41.42
2019-05-01T00:29:34.255Z,42.98
2019-05-01T00:32:03.671Z,44.67
2019-05-01T00:34:33.021Z,37.55
2019-05-01T00:37:02.394Z,44.08
2019-05-01T00:39:31.808Z,43.83
2019-05-01T00:42:01.192Z,41.55
2019-05-01T00:44:30.545Z,44.75
2019-05-01T00:46:59.913Z,41.48
2019-05-01T00:49:29.343Z,45.80
2019-05-01T00:51:58.708Z,41.35
2019-05-01T00:54:29.038Z,39.13
2019-05-01T00:57:00.044Z,42.70
2019-05-01T00:59:43.040Z,40.27
2019-05-01T01:02:14.057Z,40.33
2019-05-01T01:04:43.536Z,41.98
2019-05-01T01:07:12.882Z,40.55
2019-05-01T01:09:42.255Z,38.85
2019-05-01T01:12:11.637Z,41.70
2019-05-01T01:14:41.005Z,37.15
2019-05-01T01:17:10.374Z,40.30
2019-05-01T01:19:39.737Z,41.50
2019-05-01T01:22:09.158Z,35.83
2019-05-01T01:24:39.709Z,41.88
2019-05-01T01:27:10.337Z,39.75
2019-05-01T01:29:39.702Z,40.65
2019-05-01T01:32:09.039Z,35.23
2019-05-01T01:34:38.411Z,35.75
2019-05-01T01:37:07.834Z,39.98
2019-05-01T01:39:37.358Z,39.03
2019-05-01T01:42:08.215Z,40.08
2019-05-01T01:44:54.643Z,37.88
2019-05-01T01:47:24.465Z,41.23
2019-05-01T01:49:54.947Z,42.23
2019-05-01T01:52:25.564Z,38.13
2019-05-01T01:54:55.712Z,43.63
2019-05-01T01:57:25.155Z,34.00
2019-05-01T01:59:54.829Z,38.83
2019-05-01T02:02:37.647Z,38.65
2019-05-01T02:05:11.553Z,39.40
2019-05-01T02:07:41.527Z,36.77
2019-05-01T02:10:12.557Z,42.50
2019-05-01T02:12:42.478Z,41.28
2019-05-01T02:15:12.238Z,38.78
2019-05-01T02:17:41.604Z,43.20
2019-05-01T02:20:11.699Z,41.98
2019-05-01T02:22:41.279Z,37.00
2019-05-01T02:25:12.162Z,36.20
2019-05-01T02:27:46.150Z,41.58
2019-05-01T02:30:17.221Z,41.10
2019-05-01T02:32:47.494Z,38.03
2019-05-01T02:35:17.997Z,41.42
2019-05-01T02:37:48.784Z,39.97
2019-05-01T02:40:51.370Z,37.60
2019-05-01T02:43:22.692Z,38.73
2019-05-01T02:45:55.311Z,41.05
2019-05-01T02:48:27.940Z,37.73
2019-05-01T02:51:00.387Z,38.83
2019-05-01T02:53:32.644Z,39.05
2019-05-01T02:56:14.142Z,40.92
2019-05-01T02:58:45.106Z,39.23
2019-05-01T03:01:14.851Z,38.70
2019-05-01T03:03:44.401Z,40.03
2019-05-01T03:06:14.152Z,42.67
2019-05-01T03:08:44.317Z,49.23
2019-05-01T03:11:13.728Z,38.98
2019-05-01T03:13:45.544Z,41.90
2019-05-01T03:16:15.653Z,46.00
2019-05-01T03:18:50.344Z,42.88
2019-05-01T03:21:24.004Z,46.53
2019-05-01T03:24:11.141Z,40.70
2019-05-01T03:26:40.810Z,42.08
2019-05-01T03:29:10.245Z,42.48
2019-05-01T03:31:40.116Z,44.95
2019-05-01T03:34:09.560Z,45.75
2019-05-01T03:36:39.363Z,47.58
2019-05-01T03:39:08.779Z,47.78
2019-05-01T03:41:38.667Z,47.88
2019-05-01T03:44:08.491Z,49.20
2019-05-01T03:46:37.936Z,42.30
2019-05-01T03:49:07.331Z,51.70
2019-05-01T03:51:37.342Z,54.30
2019-05-01T03:54:07.127Z,47.43
2019-05-01T03:56:36.692Z,45.90
2019-05-01T03:59:06.708Z,51.18
2019-05-01T04:01:37.906Z,44.03
2019-05-01T04:06:38.828Z,45.43
2019-05-01T04:09:08.607Z,48.50
2019-05-01T04:11:38.188Z,46.88
2019-05-01T04:14:07.688Z,52.43
2019-05-01T04:16:37.763Z,52.15
2019-05-01T04:19:07.323Z,52.98
2019-05-01T04:21:41.588Z,49.08
2019-05-01T04:24:11.032Z,53.08
2019-05-01T04:26:41.128Z,58.63
2019-05-01T04:29:15.168Z,56.13
2019-05-01T04:31:46.529Z,53.08
2019-05-01T04:34:26.583Z,55.83
2019-05-01T04:37:01.005Z,54.48
2019-05-01T04:39:30.488Z,52.62
2019-05-01T04:42:00.062Z,57.88
2019-05-01T04:44:29.627Z,53.38
2019-05-01T04:46:59.384Z,53.87
2019-05-01T04:49:29.716Z,52.93
2019-05-01T04:51:59.291Z,60.52
2019-05-01T04:54:28.799Z,55.12
2019-05-01T04:56:58.303Z,54.80
2019-05-01T04:59:27.723Z,60.17
2019-05-01T05:02:02.026Z,55.38
2019-05-01T05:04:31.802Z,56.02
2019-05-01T05:07:01.402Z,58.38
2019-05-01T05:09:45.374Z,57.45
2019-05-01T05:12:20.131Z,54.05
2019-05-01T05:14:56.807Z,55.48
2019-05-01T05:17:26.996Z,58.10
2019-05-01T05:19:56.908Z,55.48
2019-05-01T05:22:26.521Z,52.78
2019-05-01T05:24:55.953Z,55.78
2019-05-01T05:27:25.338Z,56.37
2019-05-01T05:29:56.979Z,55.08
2019-05-01T05:32:28.724Z,61.30
2019-05-01T05:34:59.717Z,53.80
2019-05-01T05:37:49.573Z,57.27
2019-05-01T05:40:19.471Z,55.83
2019-05-01T05:42:49.236Z,52.30
2019-05-01T05:45:19.557Z,56.60
2019-05-01T05:47:49.603Z,51.45
2019-05-01T05:50:20.584Z,52.05
2019-05-01T05:52:53.002Z,55.33
2019-05-01T05:55:32.780Z,58.33
2019-05-01T05:58:05.438Z,49.98
2019-05-01T06:00:54.455Z,48.75
2019-05-01T06:03:44.567Z,50.63
2019-05-01T06:06:33.291Z,54.27
2019-05-01T06:09:08.917Z,61.05
2019-05-01T06:11:50.803Z,55.25
2019-05-01T06:14:41.583Z,52.15
2019-05-01T06:17:12.655Z,61.00
2019-05-01T06:19:49.998Z,58.77
2019-05-01T06:22:40.844Z,63.83
2019-05-01T06:25:22.461Z,71.20
2019-05-01T06:27:53.442Z,67.37
2019-05-01T06:30:22.951Z,72.37
2019-05-01T06:32:52.380Z,65.87
2019-05-01T06:35:22.062Z,69.17
2019-05-01T06:38:02.306Z,63.33
2019-05-01T06:40:40.466Z,69.58
2019-05-01T06:43:25.225Z,63.26
2019-05-01T06:46:11.247Z,72.27
2019-05-01T06:49:07.147Z,61.05
2019-05-01T06:51:41.369Z,62.10
2019-05-01T06:54:16.356Z,69.40
2019-05-01T06:56:44.884Z,63.92
2019-05-01T06:59:16.299Z,64.85
2019-05-01T07:04:15.848Z,57.10
2019-05-01T07:06:45.369Z,54.80
2019-05-01T07:09:27.392Z,59.60
2019-05-01T07:11:47.719Z,58.28
2019-05-01T07:14:17.598Z,55.70
2019-05-01T07:16:47.227Z,54.00
2019-05-01T07:19:18.057Z,50.48
2019-05-01T07:21:49.403Z,49.23
2019-05-01T07:24:19.111Z,48.10
2019-05-01T07:26:49.229Z,43.02
2019-05-01T07:29:20.426Z,43.28
2019-05-01T07:31:49.973Z,44.18
2019-05-01T07:34:21.617Z,39.13
2019-05-01T07:39:20.748Z,37.85
2019-05-01T07:41:50.340Z,38.75
2019-05-01T07:44:23.917Z,39.40
2019-05-01T07:47:07.142Z,41.05
2019-05-01T07:49:52.640Z,39.88
2019-05-01T07:52:23.914Z,39.10
2019-05-01T07:54:55.287Z,42.80
2019-05-01T07:57:26.959Z,44.58
2019-05-01T07:59:58.394Z,46.77
2019-05-01T08:02:31.132Z,55.50
2019-05-01T08:04:58.839Z,58.83
2019-05-01T08:07:32.424Z,54.10
2019-05-01T08:09:59.252Z,50.50
2019-05-01T08:12:28.611Z,54.80
2019-05-01T08:14:58.045Z,58.98
2019-05-01T08:17:29.108Z,58.10
2019-05-01T08:20:09.834Z,57.83
2019-05-01T08:22:38.905Z,52.45
2019-05-01T08:25:08.570Z,56.25
2019-05-01T08:27:42.616Z,53.68
2019-05-01T08:30:30.548Z,58.35
2019-05-01T08:33:14.666Z,55.12
2019-05-01T08:35:43.948Z,57.38
2019-05-01T08:38:13.323Z,61.55
2019-05-01T08:40:42.763Z,63.95
2019-05-01T08:43:13.679Z,60.12
2019-05-01T08:46:01.497Z,64.43
2019-05-01T08:48:37.573Z,66.67
2019-05-01T08:51:06.427Z,70.15
2019-05-01T08:53:35.859Z,61.98
2019-05-01T08:56:05.609Z,66.80
2019-05-01T08:58:34.979Z,69.82
2019-05-01T09:01:10.708Z,65.50
2019-05-01T09:03:37.855Z,63.65
2019-05-01T09:06:07.299Z,69.03
2019-05-01T09:08:36.943Z,63.98
2019-05-01T09:11:06.349Z,70.15
2019-05-01T09:13:35.726Z,71.37
2019-05-01T09:16:06.077Z,70.05
2019-05-01T09:18:35.413Z,67.15
2019-05-01T09:21:04.954Z,66.35
2019-05-01T09:23:34.776Z,67.80
2019-05-01T09:26:15.959Z,66.05
2019-05-01T09:28:45.369Z,72.58
2019-05-01T09:43:42.126Z,63.35
2019-05-01T09:46:11.580Z,65.35
2019-05-01T09:48:41.148Z,61.05
2019-05-01T09:51:28.850Z,61.75
2019-05-01T09:54:15.376Z,63.58
2019-05-01T09:56:44.868Z,61.55
2019-05-01T09:59:18.932Z,58.75
2019-05-01T10:01:49.830Z,65.72
2019-05-01T10:04:19.189Z,59.23
2019-05-01T10:06:52.421Z,60.17
2019-05-01T10:09:19.685Z,59.80
2019-05-01T10:11:49.192Z,62.00
2019-05-01T10:14:18.712Z,58.17
2019-05-01T10:16:48.077Z,58.70
2019-05-01T10:19:17.434Z,62.77
2019-05-01T10:21:46.819Z,56.65
2019-05-01T10:24:16.176Z,58.45
2019-05-01T10:26:47.218Z,58.23
2019-05-01T10:29:21.512Z,66.37
2019-05-01T10:31:56.537Z,64.35
2019-05-01T10:34:45.679Z,61.13
2019-05-01T10:37:15.072Z,68.28
2019-05-01T10:39:44.604Z,68.00
2019-05-01T10:42:14.055Z,69.03
2019-05-01T10:44:43.419Z,68.57
2019-05-01T10:47:15.782Z,72.40
2019-05-01T10:49:45.172Z,72.93
2019-05-01T10:52:14.717Z,76.47
2019-05-01T10:54:46.508Z,73.90
2019-05-01T10:59:43.848Z,78.20
2019-05-01T11:02:16.910Z,75.47
2019-05-01T11:04:46.055Z,80.10
2019-05-01T11:07:15.496Z,79.37
2019-05-01T11:09:46.407Z,79.07
2019-05-01T11:12:15.845Z,76.93
2019-05-01T11:14:45.279Z,90.87
2019-05-01T11:17:14.679Z,78.50
2019-05-01T11:19:44.120Z,80.65
2019-05-01T11:22:13.481Z,81.50
2019-05-01T11:24:42.838Z,83.45
2019-05-01T11:27:12.344Z,83.87
2019-05-01T11:29:41.701Z,85.45
2019-05-01T11:32:18.510Z,87.67
2019-05-01T11:34:49.595Z,98.05
2019-05-01T11:37:32.604Z,92.00
2019-05-01T11:40:06.157Z,92.15
2019-05-01T11:42:35.646Z,96.32
2019-05-01T11:45:10.832Z,93.40
2019-05-01T11:47:40.209Z,94.13
2019-05-01T11:50:09.903Z,100.53
2019-05-01T11:52:39.284Z,106.15
2019-05-01T11:55:08.948Z,105.72
2019-05-01T11:57:38.539Z,107.15
2019-05-01T12:00:11.563Z,104.85
2019-05-01T12:02:41.555Z,110.75
2019-05-01T12:05:11.018Z,111.47
2019-05-01T12:07:42.520Z,109.95
2019-05-01T12:10:14.375Z,111.37
2019-05-01T12:12:43.225Z,103.92
2019-05-01T12:15:13.308Z,111.07
2019-05-01T12:17:44.396Z,103.83
2019-05-01T12:20:14.448Z,104.05
2019-05-01T12:22:43.838Z,105.50
2019-05-01T12:25:14.207Z,111.88
2019-05-01T12:27:43.608Z,111.13
2019-05-01T12:30:15.009Z,109.80
2019-05-01T12:32:44.406Z,111.15
2019-05-01T12:35:13.910Z,109.95
2019-05-01T12:37:44.950Z,109.03
2019-05-01T12:40:16.229Z,111.42
2019-05-01T12:42:46.658Z,112.70
2019-05-01T12:45:22.809Z,113.05
2019-05-01T12:47:59.744Z,112.25
2019-05-01T12:50:29.175Z,111.68
2019-05-01T12:53:00.282Z,110.57
2019-05-01T12:55:31.483Z,106.30
2019-05-01T13:00:41.179Z,99.13
2019-05-01T13:03:11.246Z,100.60
2019-05-01T13:05:40.640Z,96.93
2019-05-01T13:08:10.030Z,102.27
2019-05-01T13:10:39.482Z,103.78
2019-05-01T13:13:11.102Z,100.35
2019-05-01T13:15:40.044Z,104.67
2019-05-01T13:18:09.487Z,98.67
2019-05-01T13:20:38.852Z,97.62
2019-05-01T13:23:08.383Z,106.80
2019-05-01T13:25:37.816Z,97.95
2019-05-01T13:28:11.701Z,103.60
2019-05-01T13:30:54.681Z,97.45
2019-05-01T13:33:24.186Z,105.10
2019-05-01T13:35:53.632Z,101.62
2019-05-01T13:38:23.024Z,105.43
2019-05-01T13:40:52.470Z,98.82
2019-05-01T13:43:21.834Z,94.32
2019-05-01T13:45:51.340Z,93.62
2019-05-01T13:48:20.728Z,91.50
2019-05-01T13:50:50.080Z,98.87
2019-05-01T13:53:20.222Z,96.23
2019-05-01T13:55:49.710Z,95.35
2019-05-01T13:58:19.132Z,98.00
2019-05-01T14:00:48.509Z,96.45
2019-05-01T14:03:18.013Z,90.77
2019-05-01T14:05:47.387Z,94.85
2019-05-01T14:08:16.790Z,90.55
2019-05-01T14:10:46.145Z,82.85
2019-05-01T14:13:15.665Z,86.82
2019-05-01T14:15:46.750Z,93.58
2019-05-01T14:18:16.402Z,88.85
2019-05-01T14:21:01.608Z,86.80
2019-05-01T14:23:35.494Z,89.65
2019-05-01T14:26:09.687Z,87.05
2019-05-01T14:28:39.044Z,87.45
2019-05-01T14:31:08.582Z,88.42
2019-05-01T14:33:39.511Z,83.15
2019-05-01T14:36:09.026Z,88.75
2019-05-01T14:38:41.004Z,83.40
2019-05-01T14:41:10.408Z,89.38
2019-05-01T14:43:40.088Z,93.82
2019-05-01T14:46:09.513Z,84.10
2019-05-01T14:48:38.896Z,78.52
2019-05-01T14:51:08.279Z,79.60
2019-05-01T14:53:38.228Z,81.95
2019-05-01T14:56:07.666Z,90.80
2019-05-01T14:58:37.072Z,81.87
2019-05-01T15:01:06.503Z,78.07
2019-05-01T15:03:35.951Z,79.82
2019-05-01T15:06:07.935Z,86.87
2019-05-01T15:08:39.490Z,84.42
2019-05-01T15:11:10.001Z,81.70
2019-05-01T15:13:49.878Z,81.50
2019-05-01T15:19:00.360Z,80.03
2019-05-01T15:21:29.795Z,83.67
2019-05-01T15:23:59.154Z,79.17
2019-05-01T15:26:28.638Z,75.28
2019-05-01T15:28:57.994Z,74.35
2019-05-01T15:31:27.426Z,78.17
2019-05-01T15:33:56.973Z,73.72
2019-05-01T15:36:26.361Z,68.00
2019-05-01T15:38:56.140Z,68.42
2019-05-01T15:41:32.874Z,72.45
2019-05-01T15:44:03.874Z,70.03
2019-05-01T15:46:34.942Z,72.17
2019-05-01T15:49:08.961Z,67.27
2019-05-01T15:51:38.338Z,68.90
2019-05-01T15:54:08.787Z,61.35
2019-05-01T15:56:38.250Z,58.63
2019-05-01T15:59:07.621Z,64.00
2019-05-01T16:01:39.984Z,64.32
2019-05-01T16:04:09.370Z,62.50
2019-05-01T16:06:38.867Z,63.40
2019-05-01T16:09:08.787Z,65.12
2019-05-01T16:11:56.022Z,64.82
2019-05-01T16:14:28.323Z,67.35
2019-05-01T16:16:59.383Z,69.10
2019-05-01T16:19:28.850Z,67.75
2019-05-01T16:21:58.272Z,58.40
2019-05-01T16:24:28.700Z,58.58
2019-05-01T16:26:58.074Z,61.58
2019-05-01T16:29:27.510Z,60.05
2019-05-01T16:31:56.946Z,62.73
2019-05-01T16:34:26.657Z,59.10
2019-05-01T16:36:56.101Z,60.23
2019-05-01T16:39:39.149Z,64.55
2019-05-01T16:42:10.216Z,55.38
2019-05-01T16:44:41.303Z,61.65
2019-05-01T16:47:10.819Z,51.40
2019-05-01T16:49:40.228Z,54.48
2019-05-01T16:52:09.805Z,50.98
2019-05-01T16:54:39.229Z,51.55
2019-05-01T16:57:10.309Z,57.50
2019-05-01T16:59:39.672Z,58.00
2019-05-01T17:02:17.921Z,58.48
2019-05-01T17:07:50.613Z,67.35
2019-05-01T17:10:24.639Z,66.05
2019-05-01T17:12:55.801Z,62.70
2019-05-01T17:15:35.876Z,63.80
2019-05-01T17:18:06.111Z,57.17
2019-05-01T17:20:35.561Z,57.83
2019-05-01T17:23:05.926Z,62.78
2019-05-01T17:25:36.820Z,61.63
2019-05-01T17:28:08.355Z,53.60
2019-05-01T17:30:40.800Z,53.25
2019-05-01T17:33:10.235Z,53.82
2019-05-01T17:35:41.826Z,52.35
2019-05-01T17:38:10.912Z,53.33
2019-05-01T17:40:40.267Z,53.45
2019-05-01T17:43:13.552Z,52.15
2019-05-01T17:45:40.906Z,53.52
2019-05-01T17:48:10.394Z,58.76
2019-05-01T17:50:39.779Z,57.58
2019-05-01T17:53:09.136Z,57.67
2019-05-01T17:55:41.250Z,58.58
2019-05-01T17:58:12.278Z,56.35
2019-05-01T18:00:46.311Z,57.23
2019-05-01T18:03:17.460Z,53.33
2019-05-01T18:06:01.422Z,48.17
2019-05-01T18:08:28.835Z,46.40
2019-05-01T18:10:58.216Z,53.05
2019-05-01T18:13:27.765Z,49.85
2019-05-01T18:15:58.962Z,53.25
2019-05-01T18:18:28.449Z,54.97
2019-05-01T18:21:01.067Z,50.52
2019-05-01T18:23:32.098Z,44.10
2019-05-01T18:26:09.973Z,48.43
2019-05-01T18:28:41.260Z,47.75
2019-05-01T18:31:12.345Z,51.50
2019-05-01T18:33:43.269Z,50.27
2019-05-01T18:36:12.719Z,47.67
2019-05-01T18:38:47.665Z,47.40
2019-05-01T18:41:19.351Z,44.58
2019-05-01T18:43:48.745Z,47.50
2019-05-01T18:46:18.372Z,51.37
2019-05-01T18:48:47.755Z,53.20
2019-05-01T18:51:17.126Z,48.68
2019-05-01T18:53:46.636Z,51.40
2019-05-01T18:56:16.027Z,52.20
2019-05-01T18:58:45.540Z,61.95
2019-05-01T19:01:16.841Z,49.00
2019-05-01T19:06:17.485Z,48.20
2019-05-01T19:08:46.903Z,52.20
2019-05-01T19:11:16.560Z,56.40
2019-05-01T19:13:46.104Z,59.58
2019-05-01T19:16:17.059Z,55.35
2019-05-01T19:18:46.636Z,68.83
2019-05-01T19:21:17.848Z,67.00
2019-05-01T19:23:47.383Z,74.50
2019-05-01T19:26:17.175Z,67.05
2019-05-01T19:28:48.266Z,66.62
2019-05-01T19:31:17.774Z,63.33
2019-05-01T19:33:47.233Z,67.67
2019-05-01T19:36:16.684Z,75.62
2019-05-01T19:38:48.039Z,69.33
2019-05-01T19:41:17.701Z,69.95
2019-05-01T19:43:47.443Z,71.80
2019-05-01T19:46:19.870Z,65.22
2019-05-01T19:48:50.710Z,67.95
2019-05-01T19:51:24.080Z,68.23
2019-05-01T19:53:53.402Z,67.12
2019-05-01T19:56:24.399Z,72.65
2019-05-01T19:58:53.936Z,72.10
2019-05-01T20:01:28.932Z,70.12
2019-05-01T20:03:58.582Z,71.65
2019-05-01T20:06:28.262Z,70.00
2019-05-01T20:08:57.822Z,74.60
2019-05-01T20:11:29.369Z,75.37
2019-05-01T20:13:58.922Z,76.77
2019-05-01T20:16:30.858Z,77.72
2019-05-01T20:19:02.011Z,78.47
2019-05-01T20:21:31.531Z,79.93
2019-05-01T20:24:04.297Z,82.75
2019-05-01T20:26:34.008Z,86.07
2019-05-01T20:29:03.204Z,77.33
2019-05-01T20:31:50.404Z,84.83
2019-05-01T20:34:20.305Z,92.17
2019-05-01T20:36:49.733Z,82.40
2019-05-01T20:39:19.131Z,89.07
2019-05-01T20:41:49.302Z,87.50
2019-05-01T20:44:23.549Z,86.65
2019-05-01T20:46:53.362Z,88.92
2019-05-01T20:49:22.804Z,88.75
2019-05-01T20:51:52.195Z,92.80
2019-05-01T20:54:21.675Z,92.40
2019-05-01T20:57:04.686Z,87.20
2019-05-01T20:59:35.258Z,87.40
2019-05-01T21:02:08.141Z,87.67
2019-05-01T21:04:41.724Z,87.43
2019-05-01T21:07:15.405Z,98.65
2019-05-01T21:09:47.586Z,90.75
2019-05-01T21:12:18.591Z,91.12
2019-05-01T21:14:49.458Z,90.45
2019-05-01T21:17:19.379Z,89.22
2019-05-01T21:19:48.818Z,92.92
2019-05-01T21:22:18.286Z,86.32
2019-05-01T21:24:47.702Z,90.55
2019-05-01T21:27:17.237Z,85.65
2019-05-01T21:29:46.603Z,77.55
2019-05-01T21:32:18.349Z,80.77
2019-05-01T21:34:47.208Z,77.63
2019-05-01T21:37:16.566Z,78.03
2019-05-01T21:39:46.096Z,90.95
2019-05-01T21:42:16.278Z,80.97
2019-05-01T21:44:47.288Z,75.97
2019-05-01T21:47:16.683Z,84.45
2019-05-01T21:49:47.211Z,78.12
2019-05-01T21:52:17.971Z,80.67
2019-05-01T21:54:50.138Z,84.73
2019-05-01T21:57:19.258Z,89.30
2019-05-01T21:59:50.411Z,85.63
2019-05-01T22:02:20.100Z,86.00
2019-05-01T22:04:49.568Z,88.35
2019-05-01T22:07:19.001Z,87.67
2019-05-01T22:09:50.499Z,84.28
2019-05-01T22:12:19.724Z,86.43
2019-05-01T22:14:50.915Z,84.45
2019-05-01T22:17:22.119Z,83.12
2019-05-01T22:19:51.557Z,91.87
2019-05-01T22:22:28.824Z,89.03
2019-05-01T22:25:03.224Z,83.07
2019-05-01T22:27:37.544Z,79.87
2019-05-01T22:30:24.347Z,82.60
2019-05-01T22:33:04.301Z,73.52
2019-05-01T22:35:35.375Z,68.40
2019-05-01T22:38:06.276Z,72.67
2019-05-01T22:40:37.532Z,72.12
2019-05-01T22:43:07.207Z,67.53
2019-05-01T22:45:36.611Z,71.22
2019-05-01T22:48:05.959Z,69.27
2019-05-01T22:50:35.306Z,66.47
2019-05-01T22:53:07.857Z,61.83
2019-05-01T22:55:36.718Z,63.75
2019-05-01T22:58:06.134Z,65.83
2019-05-01T23:00:46.311Z,65.97
2019-05-01T23:03:20.356Z,67.75
2019-05-01T23:05:49.714Z,67.72
2019-05-01T23:08:19.071Z,63.05
2019-05-01T23:10:48.869Z,61.08
2019-05-01T23:13:18.215Z,68.07
2019-05-01T23:15:51.509Z,64.15
2019-05-01T23:18:19.838Z,68.27
2019-05-01T23:20:49.304Z,64.53
2019-05-01T23:23:18.751Z,65.52
2019-05-01T23:25:48.251Z,60.45
2019-05-01T23:28:17.645Z,67.62
2019-05-01T23:30:47.141Z,70.50
2019-05-01T23:33:16.915Z,61.02
2019-05-01T23:35:46.276Z,66.45
2019-05-01T23:38:15.743Z,63.98
2019-05-01T23:40:46.161Z,65.50
2019-05-01T23:43:16.153Z,67.57
2019-05-01T23:45:45.632Z,69.65
2019-05-01T23:48:15.021Z,74.32
2019-05-01T23:50:45.568Z,72.10
2019-05-01T23:53:15.975Z,74.70
2019-05-01T23:55:45.357Z,78.72
2019-05-01T23:58:15.176Z,83.05
